createdAt,value
2023-08-12T00:01:27.429Z,98945.95
2023-08-12T00:03:55.142Z,98948.07
2023-08-12T00:06:22.712Z,98953.94
2023-08-12T00:08:50.171Z,98951.85
2023-08-12T00:11:17.537Z,98951.69
2023-08-12T00:13:45.395Z,98950.23
2023-08-12T00:16:12.880Z,98946.55
2023-08-12T00:18:40.414Z,98946.25
2023-08-12T00:21:09.261Z,98947.52
2023-08-12T00:23:39.769Z,98939.77
2023-08-12T00:26:07.966Z,98942.99
2023-08-12T00:28:35.494Z,98939.83
2023-08-12T00:31:03.162Z,98936.95
2023-08-12T00:33:30.716Z,98939.59
2023-08-12T00:35:58.109Z,98938.73
2023-08-12T00:38:25.573Z,98937.40
2023-08-12T00:40:53.071Z,98941.25
2023-08-12T00:43:20.427Z,98938.25
2023-08-12T00:45:47.995Z,98934.48
2023-08-12T00:48:15.677Z,98932.31
2023-08-12T00:50:43.065Z,98932.12
2023-08-12T00:53:11.070Z,98935.48
2023-08-12T00:55:39.116Z,98931.91
2023-08-12T00:58:06.820Z,98930.63
2023-08-12T01:00:34.602Z,98932.08
2023-08-12T01:03:02.754Z,98929.55
2023-08-12T01:05:31.381Z,98930.48
2023-08-12T01:07:58.865Z,98931.25
2023-08-12T01:10:28.025Z,98931.30
2023-08-12T01:13:00.674Z,98931.91
2023-08-12T01:15:28.102Z,98932.06
2023-08-12T01:17:55.830Z,98938.13
2023-08-12T01:20:27.737Z,98934.52
2023-08-12T01:23:19.696Z,98937.03
2023-08-12T01:25:47.396Z,98934.23
2023-08-12T01:28:15.681Z,98934.07
2023-08-12T01:30:52.413Z,98928.91
2023-08-12T01:33:30.061Z,98930.21
2023-08-12T01:36:16.098Z,98922.33
2023-08-12T01:38:43.453Z,98922.20
2023-08-12T01:41:11.404Z,98922.41
2023-08-12T01:43:39.634Z,98922.71
2023-08-12T01:46:07.392Z,98923.23
2023-08-12T01:48:34.965Z,98915.00
2023-08-12T01:51:03.415Z,98913.57
2023-08-12T01:53:30.779Z,98914.33
2023-08-12T01:55:58.330Z,98917.46
2023-08-12T01:58:27.693Z,98909.79
2023-08-12T02:00:55.133Z,98909.27
2023-08-12T02:03:22.615Z,98916.09
2023-08-12T02:05:50.414Z,98908.36
2023-08-12T02:08:17.878Z,98912.40
2023-08-12T02:10:45.678Z,98914.34
2023-08-12T02:13:13.122Z,98911.79
2023-08-12T02:15:40.514Z,98923.01
2023-08-12T02:18:13.265Z,98920.67
2023-08-12T02:20:42.343Z,98921.15
2023-08-12T02:23:09.703Z,98923.13
2023-08-12T02:25:37.272Z,98926.17
2023-08-12T02:28:05.379Z,98922.20
2023-08-12T02:30:32.724Z,98928.13
2023-08-12T02:33:00.132Z,98926.05
2023-08-12T02:35:27.696Z,98922.61
2023-08-12T02:37:55.184Z,98929.60
2023-08-12T02:40:23.187Z,98925.09
2023-08-12T02:42:50.597Z,98924.55
2023-08-12T02:45:19.709Z,98922.64
2023-08-12T02:47:47.401Z,98921.47
2023-08-12T02:50:14.902Z,98924.19
2023-08-12T02:52:42.245Z,98930.70
2023-08-12T02:55:10.164Z,98924.64
2023-08-12T02:57:37.578Z,98924.25
2023-08-12T03:00:06.557Z,98926.52
2023-08-12T03:02:34.089Z,98925.58
2023-08-12T03:05:01.630Z,98924.54
2023-08-12T03:07:29.634Z,98923.92
2023-08-12T03:09:57.073Z,98919.95
2023-08-12T03:12:24.859Z,98917.77
2023-08-12T03:14:52.562Z,98921.54
2023-08-12T03:17:19.978Z,98919.55
2023-08-12T03:19:47.376Z,98918.29
2023-08-12T03:22:15.822Z,98921.52
2023-08-12T03:24:43.238Z,98917.39
2023-08-12T03:27:11.364Z,98921.31
2023-08-12T03:29:39.557Z,98918.16
2023-08-12T03:32:07.084Z,98924.77
2023-08-12T03:34:34.681Z,98923.88
2023-08-12T03:37:02.750Z,98922.94
2023-08-12T03:39:30.211Z,98922.83
2023-08-12T03:41:58.513Z,98916.04
2023-08-12T03:44:25.908Z,98921.39
2023-08-12T03:46:53.495Z,98922.20
2023-08-12T03:49:22.524Z,98923.63
2023-08-12T03:51:50.816Z,98924.58
2023-08-12T03:54:19.187Z,98923.25
2023-08-12T03:56:46.598Z,98923.80
2023-08-12T03:59:14.079Z,98924.45
2023-08-12T04:01:42.722Z,98925.95
2023-08-12T04:04:12.432Z,98922.90
2023-08-12T04:06:41.899Z,98921.05
2023-08-12T04:09:09.345Z,98921.36
2023-08-12T04:11:36.893Z,98926.14
2023-08-12T04:14:04.457Z,98922.62
2023-08-12T04:16:31.860Z,98922.11
2023-08-12T04:18:59.249Z,98924.63
2023-08-12T04:21:27.120Z,98923.39
2023-08-12T04:23:54.749Z,98920.69
2023-08-12T04:26:22.268Z,98923.88
2023-08-12T04:28:49.662Z,98921.19
2023-08-12T04:31:17.491Z,98926.09
2023-08-12T04:33:45.082Z,98925.52
2023-08-12T04:36:12.850Z,98924.50
2023-08-12T04:38:40.682Z,98932.98
2023-08-12T04:41:09.464Z,98936.57
2023-08-12T04:43:37.297Z,98933.45
2023-08-12T04:46:05.020Z,98928.05
2023-08-12T04:48:32.751Z,98932.70
2023-08-12T04:51:04.360Z,98931.27
2023-08-12T04:53:31.869Z,98931.56
2023-08-12T04:55:59.681Z,98929.95
2023-08-12T04:58:27.903Z,98929.55
2023-08-12T05:00:55.369Z,98927.64
2023-08-12T05:03:23.338Z,98933.48
2023-08-12T05:05:53.165Z,98932.09
2023-08-12T05:08:21.957Z,98928.95
2023-08-12T05:10:50.136Z,98932.39
2023-08-12T05:13:17.898Z,98928.35
2023-08-12T05:15:48.633Z,98935.06
2023-08-12T05:18:16.504Z,98935.13
2023-08-12T05:20:46.465Z,98934.68
2023-08-12T05:23:14.225Z,98933.18
2023-08-12T05:25:42.161Z,98930.14
2023-08-12T05:28:09.780Z,98927.78
2023-08-12T05:30:37.165Z,98931.92
2023-08-12T05:33:05.265Z,98931.02
2023-08-12T05:35:36.493Z,98933.91
2023-08-12T05:38:04.160Z,98936.67
2023-08-12T05:40:31.827Z,98941.75
2023-08-12T05:42:59.197Z,98945.45
2023-08-12T05:45:26.645Z,98943.61
2023-08-12T05:47:54.130Z,98943.45
2023-08-12T05:50:21.659Z,98948.04
2023-08-12T05:52:49.155Z,98948.65
2023-08-12T05:55:16.620Z,98940.48
2023-08-12T05:57:43.980Z,98948.05
2023-08-12T06:00:12.549Z,98941.14
2023-08-12T06:02:40.965Z,98945.27
2023-08-12T06:05:09.333Z,98945.70
2023-08-12T06:07:36.831Z,98943.67
2023-08-12T06:10:05.402Z,98947.80
2023-08-12T06:12:32.886Z,98951.13
2023-08-12T06:15:00.347Z,98948.05
2023-08-12T06:17:27.888Z,98948.06
2023-08-12T06:19:55.206Z,98944.79
2023-08-12T06:22:22.576Z,98941.03
2023-08-12T06:24:49.901Z,98939.41
2023-08-12T06:27:17.410Z,98937.31
2023-08-12T06:29:45.075Z,98938.30
2023-08-12T06:32:14.464Z,98936.02
2023-08-12T06:34:42.618Z,98937.10
2023-08-12T06:37:10.119Z,98936.80
2023-08-12T06:39:37.603Z,98936.95
2023-08-12T06:42:05.802Z,98933.08
2023-08-12T06:44:34.175Z,98936.16
2023-08-12T06:47:01.592Z,98934.02
2023-08-12T06:49:28.942Z,98931.51
2023-08-12T06:51:56.360Z,98925.33
2023-08-12T06:54:24.164Z,98929.05
2023-08-12T06:56:51.615Z,98931.12
2023-08-12T06:59:19.309Z,98927.36
2023-08-12T07:01:46.806Z,98930.23
2023-08-12T07:04:14.339Z,98932.05
2023-08-12T07:06:41.730Z,98925.89
2023-08-12T07:09:09.632Z,98931.24
2023-08-12T07:11:37.207Z,98931.25
2023-08-12T07:14:04.994Z,98925.48
2023-08-12T07:16:32.552Z,98930.35
2023-08-12T07:18:59.974Z,98933.02
2023-08-12T07:21:27.520Z,98940.32
2023-08-12T07:26:29.425Z,98939.52
2023-08-12T07:28:57.753Z,98936.63
2023-08-12T07:31:25.217Z,98943.09
2023-08-12T07:33:52.746Z,98941.27
2023-08-12T07:36:20.095Z,98936.94
2023-08-12T07:38:47.493Z,98943.40
2023-08-12T07:41:14.889Z,98944.33
2023-08-12T07:43:42.262Z,98937.24
2023-08-12T07:46:10.452Z,98944.83
2023-08-12T07:48:39.626Z,98936.88
2023-08-12T07:51:07.294Z,98941.16
2023-08-12T07:53:34.738Z,98943.46
2023-08-12T07:56:02.216Z,98935.59
2023-08-12T07:58:29.684Z,98938.84
2023-08-12T08:00:57.008Z,98937.58
2023-08-12T08:03:24.590Z,98933.79
2023-08-12T08:05:52.001Z,98939.77
2023-08-12T08:08:21.317Z,98942.99
2023-08-12T08:10:48.866Z,98945.58
2023-08-12T08:13:16.445Z,98943.61
2023-08-12T08:15:43.815Z,98940.32
2023-08-12T08:18:11.458Z,98938.40
2023-08-12T08:20:39.153Z,98944.19
2023-08-12T08:23:06.832Z,98945.94
2023-08-12T08:25:34.332Z,98936.50
2023-08-12T08:28:01.709Z,98942.79
2023-08-12T08:30:29.234Z,98938.31
2023-08-12T08:32:56.888Z,98932.22
2023-08-12T08:35:24.332Z,98936.99
2023-08-12T08:37:51.729Z,98935.33
2023-08-12T08:40:21.691Z,98942.48
2023-08-12T08:42:53.768Z,98935.42
2023-08-12T08:45:23.354Z,98939.80
2023-08-12T08:47:51.043Z,98936.94
2023-08-12T08:50:18.854Z,98933.36
2023-08-12T08:52:46.540Z,98932.02
2023-08-12T08:55:14.012Z,98936.15
2023-08-12T08:57:43.097Z,98937.29
2023-08-12T09:00:19.054Z,98932.61
2023-08-12T09:02:49.740Z,98929.78
2023-08-12T09:05:18.161Z,98932.00
2023-08-12T09:07:46.166Z,98922.27
2023-08-12T09:10:15.657Z,98925.96
2023-08-12T09:12:44.578Z,98927.53
2023-08-12T09:15:12.039Z,98922.45
2023-08-12T09:17:39.872Z,98923.79
2023-08-12T09:20:13.121Z,98925.55
2023-08-12T09:23:54.885Z,98923.50
2023-08-12T09:26:22.495Z,98924.58
2023-08-12T09:28:50.320Z,98919.18
2023-08-12T09:31:25.895Z,98921.92
2023-08-12T09:33:53.954Z,98913.45
2023-08-12T09:36:23.462Z,98923.81
2023-08-12T09:38:50.887Z,98915.05
2023-08-12T09:41:18.285Z,98910.89
2023-08-12T09:43:45.720Z,98905.48
2023-08-12T09:46:15.199Z,98915.34
2023-08-12T09:48:42.848Z,98924.77
2023-08-12T09:51:10.303Z,98917.55
2023-08-12T09:53:37.968Z,98903.08
2023-08-12T09:56:09.130Z,98916.51
2023-08-12T09:58:38.297Z,98920.33
2023-08-12T10:01:06.084Z,98913.40
2023-08-12T10:03:34.700Z,98921.52
2023-08-12T10:06:04.389Z,98920.91
2023-08-12T10:08:31.782Z,98928.33
2023-08-12T10:11:11.292Z,98927.40
2023-08-12T10:13:43.853Z,98928.20
2023-08-12T10:16:12.701Z,98928.94
2023-08-12T10:18:40.866Z,98937.13
2023-08-12T10:21:11.149Z,98939.09
2023-08-12T10:23:38.558Z,98939.38
2023-08-12T10:26:06.814Z,98945.78
2023-08-12T10:28:38.465Z,98943.29
2023-08-12T10:31:07.224Z,98949.05
2023-08-12T10:33:38.767Z,98944.77
2023-08-12T10:36:06.738Z,98946.70
2023-08-12T10:38:34.742Z,98944.65
2023-08-12T10:41:22.166Z,98929.94
2023-08-12T10:43:55.990Z,98940.33
2023-08-12T10:46:32.104Z,98938.70
2023-08-12T10:49:02.838Z,98938.12
2023-08-12T10:51:50.112Z,98929.58
2023-08-12T10:54:19.158Z,98935.40
2023-08-12T10:57:12.624Z,98932.59
2023-08-12T10:59:46.632Z,98932.13
2023-08-12T11:02:17.905Z,98934.39
2023-08-12T11:04:46.169Z,98930.80
2023-08-12T11:07:24.824Z,98929.39
2023-08-12T11:09:56.193Z,98928.44
2023-08-12T11:12:34.637Z,98943.70
2023-08-12T11:15:02.664Z,98941.17
2023-08-12T11:17:33.144Z,98947.79
2023-08-12T11:20:01.318Z,98950.11
2023-08-12T11:22:28.790Z,98948.01
2023-08-12T11:24:56.186Z,98955.98
2023-08-12T11:27:24.131Z,98960.45
2023-08-12T11:29:52.650Z,98959.44
2023-08-12T11:32:20.371Z,98965.94
2023-08-12T11:34:48.038Z,98970.73
2023-08-12T11:37:15.403Z,98968.20
2023-08-12T11:39:42.828Z,98966.84
2023-08-12T11:42:10.460Z,98963.23
2023-08-12T11:44:38.109Z,98962.85
2023-08-12T11:47:05.828Z,98955.23
2023-08-12T11:49:33.300Z,98957.83
2023-08-12T11:52:00.629Z,98957.74
2023-08-12T11:54:29.950Z,98957.02
2023-08-12T11:56:58.386Z,98943.17
2023-08-12T11:59:27.422Z,98944.18
2023-08-12T12:01:55.928Z,98940.73
2023-08-12T12:04:23.804Z,98937.89
2023-08-12T12:06:51.365Z,98938.82
2023-08-12T12:09:19.662Z,98936.49
2023-08-12T12:11:47.170Z,98936.78
2023-08-12T12:14:14.770Z,98935.05
2023-08-12T12:16:43.634Z,98937.80
2023-08-12T12:19:17.291Z,98930.19
2023-08-12T12:21:53.004Z,98931.70
2023-08-12T12:24:21.180Z,98940.70
2023-08-12T12:26:48.552Z,98939.27
2023-08-12T12:29:16.077Z,98938.59
2023-08-12T12:31:43.769Z,98933.38
2023-08-12T12:34:11.289Z,98931.48
2023-08-12T12:36:39.260Z,98940.38
2023-08-12T12:39:06.835Z,98933.40
2023-08-12T12:41:34.257Z,98931.33
2023-08-12T12:44:03.438Z,98941.30
2023-08-12T12:46:31.102Z,98944.92
2023-08-12T12:48:58.657Z,98943.56
2023-08-12T12:51:26.079Z,98943.05
2023-08-12T12:53:53.556Z,98944.48
2023-08-12T12:56:20.911Z,98945.53
2023-08-12T12:58:48.590Z,98951.96
2023-08-12T13:01:16.352Z,98940.27
2023-08-12T13:03:43.847Z,98948.24
2023-08-12T13:06:11.431Z,98949.64
2023-08-12T13:08:39.019Z,98940.78
2023-08-12T13:11:06.370Z,98940.21
2023-08-12T13:13:33.768Z,98944.34
2023-08-12T13:16:01.184Z,98942.36
2023-08-12T13:18:28.626Z,98939.86
2023-08-12T13:20:56.521Z,98933.37
2023-08-12T13:23:23.897Z,98936.61
2023-08-12T13:25:51.324Z,98937.68
2023-08-12T13:28:18.804Z,98937.97
2023-08-12T13:30:46.712Z,98948.01
2023-08-12T13:33:14.176Z,98959.30
2023-08-12T13:35:41.531Z,98960.14
2023-08-12T13:38:08.950Z,98954.91
2023-08-12T13:40:36.390Z,98953.69
2023-08-12T13:43:04.007Z,98951.38
2023-08-12T13:45:31.441Z,98948.23
2023-08-12T13:47:58.911Z,98948.59
2023-08-12T13:50:26.614Z,98947.30
2023-08-12T13:52:53.998Z,98945.32
2023-08-12T13:55:21.737Z,98943.86
2023-08-12T13:57:49.315Z,98944.13
2023-08-12T14:00:16.953Z,98945.67
2023-08-12T14:02:44.895Z,98945.96
2023-08-12T14:05:12.612Z,98943.39
2023-08-12T14:07:40.111Z,98939.08
2023-08-12T14:10:09.340Z,98938.13
2023-08-12T14:12:36.934Z,98942.73
2023-08-12T14:15:05.353Z,98937.44
2023-08-12T14:17:32.984Z,98936.05
2023-08-12T14:20:01.000Z,98930.89
2023-08-12T14:22:29.181Z,98928.90
2023-08-12T14:27:29.013Z,98928.27
2023-08-12T14:29:56.413Z,98927.65
2023-08-12T14:32:23.811Z,98921.15
2023-08-12T14:34:51.301Z,98924.64
2023-08-12T14:37:19.865Z,98907.46
2023-08-12T14:39:47.322Z,98917.25
2023-08-12T14:42:15.012Z,98916.73
2023-08-12T14:44:42.504Z,98919.59
2023-08-12T14:47:10.280Z,98913.36
2023-08-12T14:49:37.980Z,98921.42
2023-08-12T14:52:05.365Z,98917.68
2023-08-12T14:54:32.814Z,98917.02
2023-08-12T14:57:00.365Z,98918.32
2023-08-12T14:59:27.718Z,98913.09
2023-08-12T15:01:55.087Z,98926.29
2023-08-12T15:04:23.029Z,98923.46
2023-08-12T15:06:50.394Z,98922.23
2023-08-12T15:09:17.982Z,98929.54
2023-08-12T15:11:46.022Z,98927.48
2023-08-12T15:14:13.482Z,98920.29
2023-08-12T15:16:41.205Z,98921.58
2023-08-12T15:19:09.204Z,98926.55
2023-08-12T15:21:36.570Z,98926.52
2023-08-12T15:24:04.922Z,98928.77
2023-08-12T15:26:33.060Z,98929.33
2023-08-12T15:29:00.755Z,98937.71
2023-08-12T15:31:28.560Z,98930.63
2023-08-12T15:33:56.403Z,98944.42
2023-08-12T15:36:24.052Z,98940.83
2023-08-12T15:38:51.467Z,98943.21
2023-08-12T15:41:18.989Z,98951.59
2023-08-12T15:43:46.367Z,98948.78
2023-08-12T15:46:13.770Z,98950.39
2023-08-12T15:48:41.475Z,98948.89
2023-08-12T15:51:08.873Z,98951.55
2023-08-12T15:53:36.269Z,98952.90
2023-08-12T15:56:03.758Z,98953.42
2023-08-12T15:58:31.703Z,98955.31
2023-08-12T16:00:59.109Z,98959.02
2023-08-12T16:03:26.649Z,98961.21
2023-08-12T16:05:58.186Z,98955.61
2023-08-12T16:08:25.658Z,98957.52
2023-08-12T16:10:53.104Z,98957.60
2023-08-12T16:13:20.506Z,98961.50
2023-08-12T16:15:48.374Z,98953.21
2023-08-12T16:18:15.928Z,98956.57
2023-08-12T16:20:43.740Z,98958.73
2023-08-12T16:23:11.086Z,98954.14
2023-08-12T16:25:38.576Z,98958.00
2023-08-12T16:28:06.036Z,98961.10
2023-08-12T16:30:33.503Z,98961.38
2023-08-12T16:33:01.055Z,98967.48
2023-08-12T16:35:28.650Z,98967.92
2023-08-12T16:37:56.013Z,98962.81
2023-08-12T16:40:23.536Z,98961.11
2023-08-12T16:42:51.097Z,98965.60
2023-08-12T16:45:18.868Z,98968.33
2023-08-12T16:47:46.345Z,98972.48
2023-08-12T16:50:13.733Z,98974.77
2023-08-12T16:52:41.597Z,98980.63
2023-08-12T16:55:09.853Z,98978.97
2023-08-12T16:57:37.298Z,98981.96
2023-08-12T17:00:06.526Z,98984.27
2023-08-12T17:02:33.903Z,98987.13
2023-08-12T17:05:01.376Z,98990.38
2023-08-12T17:07:28.979Z,98990.88
2023-08-12T17:09:59.409Z,98998.11
2023-08-12T17:12:27.232Z,98995.07
2023-08-12T17:14:54.855Z,98997.49
2023-08-12T17:17:22.854Z,99005.51
2023-08-12T17:19:50.228Z,99009.47
2023-08-12T17:22:18.283Z,99008.13
2023-08-12T17:24:47.118Z,99009.02
2023-08-12T17:27:14.758Z,99011.84
2023-08-12T17:29:42.144Z,99014.18
2023-08-12T17:32:09.571Z,99020.07
2023-08-12T17:34:36.921Z,99020.80
2023-08-12T17:37:05.159Z,99019.85
2023-08-12T17:39:32.604Z,99026.02
2023-08-12T17:42:00.529Z,99027.11
2023-08-12T17:44:27.910Z,99026.66
2023-08-12T17:46:55.274Z,99024.39
2023-08-12T17:49:22.649Z,99023.36
2023-08-12T17:51:50.216Z,99025.21
2023-08-12T17:54:17.801Z,99026.79
2023-08-12T17:56:46.053Z,99029.77
2023-08-12T17:59:13.612Z,99029.71
2023-08-12T18:01:41.220Z,99026.20
2023-08-12T18:04:08.597Z,99026.70
2023-08-12T18:06:35.972Z,99028.16
2023-08-12T18:09:06.220Z,99030.27
2023-08-12T18:11:37.018Z,99028.66
2023-08-12T18:14:04.664Z,99030.64
2023-08-12T18:16:32.359Z,99027.65
2023-08-12T18:19:00.353Z,99030.14
2023-08-12T18:21:28.039Z,99029.34
2023-08-12T18:23:55.734Z,99030.11
2023-08-12T18:26:23.079Z,99030.59
2023-08-12T18:28:50.777Z,99031.77
2023-08-12T18:31:18.146Z,99036.05
2023-08-12T18:33:45.518Z,99035.37
2023-08-12T18:36:12.949Z,99037.52
2023-08-12T18:38:40.430Z,99035.27
2023-08-12T18:41:08.204Z,99036.49
2023-08-12T18:43:35.596Z,99034.56
2023-08-12T18:46:04.069Z,99030.52
2023-08-12T18:48:31.548Z,99039.30
2023-08-12T18:50:58.921Z,99043.31
2023-08-12T18:53:28.462Z,99043.09
2023-08-12T18:55:55.899Z,99040.38
2023-08-12T18:58:23.300Z,99043.54
2023-08-12T19:00:50.728Z,99044.18
2023-08-12T19:03:18.310Z,99042.84
2023-08-12T19:05:47.383Z,99039.31
2023-08-12T19:08:16.926Z,99039.52
2023-08-12T19:10:45.336Z,99043.05
2023-08-12T19:13:12.889Z,99045.62
2023-08-12T19:15:40.450Z,99049.16
2023-08-12T19:18:08.185Z,99050.38
2023-08-12T19:20:35.749Z,99043.96
2023-08-12T19:23:03.441Z,99051.33
2023-08-12T19:25:31.592Z,99051.95
2023-08-12T19:27:59.029Z,99053.55
2023-08-12T19:30:26.369Z,99050.48
2023-08-12T19:32:54.464Z,99051.02
2023-08-12T19:35:22.266Z,99049.46
2023-08-12T19:37:49.901Z,99049.45
2023-08-12T19:40:17.730Z,99046.77
2023-08-12T19:42:45.231Z,99048.96
2023-08-12T19:45:12.808Z,99054.99
2023-08-12T19:47:41.414Z,99056.42
2023-08-12T19:50:09.855Z,99059.63
2023-08-12T19:52:37.462Z,99060.96
2023-08-12T19:55:06.051Z,99058.16
2023-08-12T19:57:34.110Z,99062.80
2023-08-12T20:00:01.589Z,99058.89
2023-08-12T20:02:40.515Z,99062.35
2023-08-12T20:05:15.458Z,99061.97
2023-08-12T20:07:44.001Z,99061.80
2023-08-12T20:10:11.604Z,99061.79
2023-08-12T20:12:39.111Z,99062.20
2023-08-12T20:15:07.448Z,99060.05
2023-08-12T20:17:35.009Z,99061.44
2023-08-12T20:20:04.307Z,99060.07
2023-08-12T20:22:31.725Z,99060.98
2023-08-12T20:24:59.095Z,99063.45
2023-08-12T20:27:26.443Z,99063.64
2023-08-12T20:29:53.819Z,99061.76
2023-08-12T20:32:21.233Z,99061.14
2023-08-12T20:34:48.999Z,99058.94
2023-08-12T20:37:16.661Z,99061.69
2023-08-12T20:39:44.280Z,99057.02
2023-08-12T20:42:11.675Z,99060.00
2023-08-12T20:44:39.165Z,99063.30
2023-08-12T20:47:06.507Z,99062.83
2023-08-12T20:49:33.866Z,99064.51
2023-08-12T20:52:01.244Z,99060.15
2023-08-12T20:54:28.703Z,99069.30
2023-08-12T20:56:56.122Z,99068.81
2023-08-12T20:59:23.577Z,99064.77
2023-08-12T21:01:51.095Z,99065.81
2023-08-12T21:04:18.491Z,99067.02
2023-08-12T21:06:45.993Z,99067.48
2023-08-12T21:09:13.876Z,99068.59
2023-08-12T21:11:41.411Z,99070.17
2023-08-12T21:14:08.863Z,99065.35
2023-08-12T21:16:36.346Z,99068.57
2023-08-12T21:19:03.715Z,99067.50
2023-08-12T21:21:31.141Z,99068.66
2023-08-12T21:23:58.670Z,99071.16
2023-08-12T21:26:26.028Z,99067.30
2023-08-12T21:28:53.498Z,99070.29
2023-08-12T21:31:21.047Z,99065.18
2023-08-12T21:33:48.645Z,99066.91
2023-08-12T21:36:16.403Z,99065.17
2023-08-12T21:41:36.079Z,99070.77
2023-08-12T21:44:05.015Z,99075.48
2023-08-12T21:46:32.372Z,99073.48
2023-08-12T21:48:59.763Z,99074.21
2023-08-12T21:51:27.130Z,99077.77
2023-08-12T21:53:54.520Z,99082.01
2023-08-12T21:56:21.927Z,99080.34
2023-08-12T21:58:49.404Z,99075.86
2023-08-12T22:01:16.774Z,99081.58
2023-08-12T22:03:44.731Z,99084.65
2023-08-12T22:06:12.134Z,99078.86
2023-08-12T22:08:39.736Z,99082.21
2023-08-12T22:11:07.297Z,99078.77
2023-08-12T22:13:34.770Z,99080.47
2023-08-12T22:16:02.213Z,99079.23
2023-08-12T22:18:29.795Z,99077.65
2023-08-12T22:20:57.170Z,99080.23
2023-08-12T22:23:24.518Z,99082.20
2023-08-12T22:25:52.173Z,99087.06
2023-08-12T22:28:20.779Z,99086.17
2023-08-12T22:30:48.731Z,99089.48
2023-08-12T22:33:16.756Z,99089.02
2023-08-12T22:35:44.244Z,99089.91
2023-08-12T22:38:11.633Z,99093.22
2023-08-12T22:40:39.092Z,99089.14
2023-08-12T22:43:06.429Z,99089.70
2023-08-12T22:45:34.756Z,99085.69
2023-08-12T22:48:02.368Z,99088.34
2023-08-12T22:50:29.850Z,99091.08
2023-08-12T22:52:57.241Z,99094.94
2023-08-12T22:55:24.674Z,99092.96
2023-08-12T22:57:52.028Z,99094.86
2023-08-12T23:00:20.193Z,99096.79
2023-08-12T23:02:47.768Z,99099.78
2023-08-12T23:05:15.390Z,99096.17
2023-08-12T23:07:42.765Z,99099.56
2023-08-12T23:10:10.990Z,99095.83
2023-08-12T23:12:38.535Z,99097.30
2023-08-12T23:15:08.190Z,99095.00
2023-08-12T23:17:36.026Z,99098.41
2023-08-12T23:20:06.556Z,99101.73
2023-08-12T23:22:33.982Z,99100.25
2023-08-12T23:25:01.743Z,99102.69
2023-08-12T23:27:29.075Z,99098.61
2023-08-12T23:29:56.424Z,99105.02
2023-08-12T23:32:24.032Z,99107.91
2023-08-12T23:34:51.399Z,99107.90
2023-08-12T23:37:18.797Z,99108.30
2023-08-12T23:39:46.190Z,99109.58
2023-08-12T23:42:14.003Z,99108.98
2023-08-12T23:44:41.714Z,99109.08
2023-08-12T23:47:09.273Z,99116.52
2023-08-12T23:49:36.616Z,99111.98
2023-08-12T23:52:04.594Z,99111.09
2023-08-12T23:54:31.986Z,99107.90
2023-08-12T23:57:00.823Z,99108.93
2023-08-12T23:59:28.177Z,99110.54
